createdAt,value
2023-01-04T00:00:00.155Z, 8.3
2023-01-04T00:02:00.203Z, 9.9
2023-01-04T00:04:00.139Z, 9.9
2023-01-04T00:06:00.134Z, 9.9
2023-01-04T00:08:00.084Z, 13.2
2023-01-04T00:10:00.198Z, 13.2
2023-01-04T00:12:00.107Z, 9.1
2023-01-04T00:14:00.121Z, 9.1
2023-01-04T00:16:05.572Z, 9.1
2023-01-04T00:18:00.093Z, 9
2023-01-04T00:20:00.109Z, 9
2023-01-04T00:22:00.112Z, 10.7
2023-01-04T00:24:00.415Z, 10.7
2023-01-04T00:26:00.527Z, 10.7
2023-01-04T00:28:00.489Z, 10.1
2023-01-04T00:30:00.082Z, 10.1
2023-01-04T00:32:00.092Z, 10.9
2023-01-04T00:34:00.117Z, 10.9
2023-01-04T00:36:00.126Z, 10.9
2023-01-04T00:38:00.095Z, 10.3
2023-01-04T00:40:00.130Z, 10.3
2023-01-04T00:42:01.252Z, 9
2023-01-04T00:44:00.084Z, 9
2023-01-04T00:46:00.160Z, 9
2023-01-04T00:48:00.127Z, 9.1
2023-01-04T00:50:00.132Z, 9.1
2023-01-04T00:52:00.099Z, 9.1
2023-01-04T00:54:00.084Z, 9.1
2023-01-04T00:56:00.117Z, 9.1
2023-01-04T00:58:00.146Z, 9.5
2023-01-04T01:00:00.159Z, 9.5
2023-01-04T01:02:00.248Z, 9.5
2023-01-04T01:04:00.211Z, 8.9
2023-01-04T01:06:00.110Z, 8.9
2023-01-04T01:08:00.149Z, 9.9
2023-01-04T01:10:00.160Z, 9.9
2023-01-04T01:12:00.144Z, 9.9
2023-01-04T01:14:00.138Z, 11.1
2023-01-04T01:16:00.132Z, 11.1
2023-01-04T01:18:00.115Z, 11.3
2023-01-04T01:20:00.110Z, 11.3
2023-01-04T01:22:00.158Z, 11.3
2023-01-04T01:24:00.134Z, 10
2023-01-04T01:26:00.086Z, 10
2023-01-04T01:28:00.144Z, 9.8
2023-01-04T01:30:00.105Z, 9.8
2023-01-04T01:32:00.157Z, 9.8
2023-01-04T01:34:00.084Z, 12.4
2023-01-04T01:36:00.104Z, 12.4
2023-01-04T01:38:00.098Z, 11.7
2023-01-04T01:40:00.107Z, 11.7
2023-01-04T01:42:00.109Z, 11.7
2023-01-04T01:44:00.140Z, 10
2023-01-04T01:46:00.207Z, 10
2023-01-04T01:48:00.116Z, 10
2023-01-04T01:50:00.104Z, 10
2023-01-04T01:52:00.117Z, 10
2023-01-04T01:54:00.119Z, 10.1
2023-01-04T01:56:00.107Z, 10.1
2023-01-04T01:58:00.098Z, 10.6
2023-01-04T02:00:00.173Z, 10.6
2023-01-04T02:02:00.260Z, 10.6
2023-01-04T02:04:00.181Z, 9.8
2023-01-04T02:06:00.127Z, 9.8
2023-01-04T02:08:00.115Z, 11.8
2023-01-04T02:10:00.150Z, 11.8
2023-01-04T02:12:00.111Z, 11.8
2023-01-04T02:14:00.121Z, 11.1
2023-01-04T02:16:00.142Z, 11.1
2023-01-04T02:18:00.107Z, 10.2
2023-01-04T02:20:00.120Z, 10.2
2023-01-04T02:22:00.101Z, 10.2
2023-01-04T02:24:00.113Z, 11.2
2023-01-04T02:26:00.108Z, 11.2
2023-01-04T02:28:00.125Z, 10.2
2023-01-04T02:30:00.108Z, 10.2
2023-01-04T02:32:00.103Z, 10.2
2023-01-04T02:34:00.125Z, 11.7
2023-01-04T02:36:00.118Z, 11.7
2023-01-04T02:38:00.094Z, 10.9
2023-01-04T02:40:00.105Z, 10.9
2023-01-04T02:42:00.112Z, 10.9
2023-01-04T02:44:00.116Z, 10.6
2023-01-04T02:46:00.105Z, 10.6
2023-01-04T02:48:00.128Z, 11.2
2023-01-04T02:50:05.088Z, 11.2
2023-01-04T02:52:00.145Z, 11.2
2023-01-04T02:54:00.147Z, 11.2
2023-01-04T02:56:00.147Z, 11.2
2023-01-04T02:58:00.076Z, 12.6
2023-01-04T03:00:00.143Z, 12.6
2023-01-04T03:02:00.334Z, 12.6
2023-01-04T03:04:00.286Z, 9.3
2023-01-04T03:06:00.329Z, 9.3
2023-01-04T03:08:00.235Z, 11.4
2023-01-04T03:10:00.106Z, 11.4
2023-01-04T03:12:00.097Z, 11.4
2023-01-04T03:14:00.098Z, 10.1
2023-01-04T03:16:00.229Z, 10.1
2023-01-04T03:18:00.083Z, 10.5
2023-01-04T03:20:00.131Z, 10.5
2023-01-04T03:22:00.093Z, 10.5
2023-01-04T03:24:00.119Z, 11.4
2023-01-04T03:26:00.124Z, 11.4
2023-01-04T03:28:00.091Z, 12
2023-01-04T03:30:00.096Z, 12
2023-01-04T03:32:00.112Z, 12
2023-01-04T03:34:00.095Z, 9.8
2023-01-04T03:36:00.102Z, 9.8
2023-01-04T03:38:00.101Z, 12.5
2023-01-04T03:40:00.106Z, 12.5
2023-01-04T03:42:00.115Z, 12.5
2023-01-04T03:44:00.121Z, 12
2023-01-04T03:46:00.121Z, 12
2023-01-04T03:48:00.145Z, 10.3
2023-01-04T03:50:00.206Z, 10.3
2023-01-04T03:52:00.101Z, 10.3
2023-01-04T03:54:00.111Z, 11.4
2023-01-04T03:56:00.131Z, 11.4
2023-01-04T03:58:00.104Z, 9.2
2023-01-04T04:00:00.115Z, 9.2
2023-01-04T04:02:00.237Z, 9.2
2023-01-04T04:04:00.312Z, 11.9
2023-01-04T04:06:00.184Z, 11.9
2023-01-04T04:08:00.090Z, 10.8
2023-01-04T04:10:00.122Z, 10.8
2023-01-04T04:12:00.110Z, 10.8
2023-01-04T04:14:00.144Z, 9.1
2023-01-04T04:16:00.178Z, 9.1
2023-01-04T04:18:00.103Z, 9.9
2023-01-04T04:20:00.141Z, 9.9
2023-01-04T04:22:00.158Z, 9.9
2023-01-04T04:24:00.128Z, 9
2023-01-04T04:26:00.100Z, 9
2023-01-04T04:28:00.076Z, 7
2023-01-04T04:30:00.105Z, 7
2023-01-04T04:32:00.201Z, 7
2023-01-04T04:34:00.098Z, 8.4
2023-01-04T04:36:00.127Z, 8.4
2023-01-04T04:38:00.135Z, 7.2
2023-01-04T04:40:00.123Z, 7.2
2023-01-04T04:42:00.104Z, 7.2
2023-01-04T04:44:00.108Z, 7.2
2023-01-04T04:46:00.116Z, 7.2
2023-01-04T04:48:00.134Z, 12.5
2023-01-04T04:50:00.123Z, 12.5
2023-01-04T04:52:00.104Z, 12.5
2023-01-04T04:54:00.094Z, 7.9
2023-01-04T04:56:00.109Z, 7.9
2023-01-04T04:58:00.166Z, 9.8
2023-01-04T05:00:00.101Z, 9.8
2023-01-04T05:02:00.336Z, 9.8
2023-01-04T05:04:00.089Z, 9.9
2023-01-04T05:06:00.101Z, 9.9
2023-01-04T05:08:00.101Z, 10.9
2023-01-04T05:10:00.099Z, 10.9
2023-01-04T05:12:00.116Z, 10.9
2023-01-04T05:14:00.107Z, 7
2023-01-04T05:16:00.161Z, 7
2023-01-04T05:18:00.104Z, 8.7
2023-01-04T05:20:00.127Z, 8.7
2023-01-04T05:22:00.107Z, 8.7
2023-01-04T05:24:00.098Z, 6.9
2023-01-04T05:26:00.091Z, 6.9
2023-01-04T05:28:00.093Z, 8.3
2023-01-04T05:30:00.161Z, 8.3
2023-01-04T05:32:00.232Z, 8.3
2023-01-04T05:34:00.104Z, 7.1
2023-01-04T05:36:00.207Z, 7.1
2023-01-04T05:38:00.271Z, 6.9
2023-01-04T05:40:00.099Z, 6.9
2023-01-04T05:42:00.108Z, 6.9
2023-01-04T05:44:00.108Z, 6.6
2023-01-04T05:46:00.155Z, 6.6
2023-01-04T05:48:00.097Z, 6.9
2023-01-04T05:50:00.134Z, 6.9
2023-01-04T05:52:00.130Z, 6.9
2023-01-04T05:54:00.110Z, 6.6
2023-01-04T05:56:00.161Z, 6.6
2023-01-04T05:58:00.079Z, 7.3
2023-01-04T06:00:00.100Z, 7.3
2023-01-04T06:02:00.302Z, 7.3
2023-01-04T06:04:00.183Z, 7
2023-01-04T06:06:00.080Z, 7
2023-01-04T06:08:00.134Z, 6.5
2023-01-04T06:10:00.151Z, 6.5
2023-01-04T06:12:00.107Z, 6.5
2023-01-04T06:14:00.117Z, 5.4
2023-01-04T06:16:00.088Z, 5.4
2023-01-04T06:18:00.097Z, 4.6
2023-01-04T06:20:00.167Z, 4.6
2023-01-04T06:22:00.125Z, 4.6
2023-01-04T06:24:00.073Z, 5.2
2023-01-04T06:26:00.107Z, 5.2
2023-01-04T06:28:00.089Z, 5.3
2023-01-04T06:30:00.125Z, 5.3
2023-01-04T06:32:00.082Z, 5.3
2023-01-04T06:34:00.126Z, 5.4
2023-01-04T06:36:00.277Z, 5.4
2023-01-04T06:38:00.176Z, 5.1
2023-01-04T06:40:00.141Z, 5.1
2023-01-04T06:42:06.332Z, 5.1
2023-01-04T06:44:00.105Z, 4.7
2023-01-04T06:46:00.270Z, 4.7
2023-01-04T06:48:03.397Z, 4
2023-01-04T06:50:00.122Z, 4
2023-01-04T06:52:00.116Z, 4
2023-01-04T06:54:00.111Z, 4.4
2023-01-04T06:56:00.098Z, 4.4
2023-01-04T06:58:00.472Z, 3.7
2023-01-04T07:00:00.114Z, 3.7
2023-01-04T07:02:00.331Z, 3.7
2023-01-04T07:04:00.207Z, 3.9
2023-01-04T07:06:00.095Z, 3.9
2023-01-04T07:08:07.397Z, 4.6
2023-01-04T07:10:03.836Z, 4.6
2023-01-04T07:12:00.103Z, 4.6
2023-01-04T07:14:00.094Z, 4.5
2023-01-04T07:16:00.109Z, 4.5
2023-01-04T07:18:00.108Z, 3.9
2023-01-04T07:20:00.153Z, 3.9
2023-01-04T07:22:00.106Z, 3.9
2023-01-04T07:24:00.096Z, 4.2
2023-01-04T07:26:00.107Z, 4.2
2023-01-04T07:28:00.125Z, 3.3
2023-01-04T07:30:00.115Z, 3.3
2023-01-04T07:32:00.113Z, 3.3
2023-01-04T07:34:00.108Z, 5.4
2023-01-04T07:36:00.126Z, 5.4
2023-01-04T07:38:00.137Z, 4.5
2023-01-04T07:40:00.127Z, 4.5
2023-01-04T07:42:00.114Z, 4.5
2023-01-04T07:44:00.102Z, 3.8
2023-01-04T07:46:00.208Z, 3.8
2023-01-04T07:48:00.099Z, 3.9
2023-01-04T07:50:00.114Z, 3.9
2023-01-04T07:52:00.110Z, 3.9
2023-01-04T07:54:00.121Z, 4.3
2023-01-04T07:56:00.109Z, 4.3
2023-01-04T07:58:00.116Z, 4
2023-01-04T08:00:00.057Z, 4
2023-01-04T08:02:00.178Z, 4
2023-01-04T08:04:00.170Z, 4.9
2023-01-04T08:06:00.052Z, 4.9
2023-01-04T08:08:00.037Z, 3.7
2023-01-04T08:10:00.102Z, 3.7
2023-01-04T08:12:00.114Z, 3.7
2023-01-04T08:14:00.307Z, 3.4
2023-01-04T08:16:00.197Z, 3.4
2023-01-04T08:18:01.197Z, 4.2
2023-01-04T08:20:00.098Z, 4.2
2023-01-04T08:22:00.117Z, 4.2
2023-01-04T08:24:00.058Z, 3.6
2023-01-04T08:26:00.085Z, 3.6
2023-01-04T08:28:00.095Z, 4.4
2023-01-04T08:30:00.113Z, 4.4
2023-01-04T08:32:00.090Z, 4.4
2023-01-04T08:34:00.090Z, 4.2
2023-01-04T08:36:00.085Z, 4.2
2023-01-04T08:38:28.579Z, 3.6
2023-01-04T08:40:00.117Z, 3.6
2023-01-04T08:42:09.828Z, 3.6
2023-01-04T08:44:00.102Z, 3.8
2023-01-04T08:46:00.147Z, 3.8
2023-01-04T08:48:00.083Z, 3.8
2023-01-04T08:50:04.850Z, 3.8
2023-01-04T08:52:00.119Z, 3.8
2023-01-04T08:54:00.114Z, 4
2023-01-04T08:56:00.105Z, 4
2023-01-04T08:58:00.091Z, 4.8
2023-01-04T09:00:00.132Z, 4.8
2023-01-04T09:02:05.336Z, 4.8
2023-01-04T09:04:00.258Z, 5
2023-01-04T09:06:00.304Z, 5
2023-01-04T09:08:00.358Z, 3.7
2023-01-04T09:10:00.309Z, 3.7
2023-01-04T09:12:00.375Z, 3.7
2023-01-04T09:14:07.393Z, 4.7
2023-01-04T09:16:00.193Z, 4.7
2023-01-04T09:18:31.237Z, 4.3
2023-01-04T09:20:00.122Z, 4.3
2023-01-04T09:22:00.257Z, 4.3
2023-01-04T09:24:00.103Z, 3.6
2023-01-04T09:26:04.336Z, 3.6
2023-01-04T09:28:00.121Z, 4.3
2023-01-04T09:30:00.115Z, 4.3
2023-01-04T09:32:00.292Z, 4.3
2023-01-04T09:34:17.388Z, 4.4
2023-01-04T09:36:00.109Z, 4.4
2023-01-04T09:38:00.112Z, 4.4
2023-01-04T09:40:00.131Z, 4.4
2023-01-04T09:42:00.128Z, 4.4
2023-01-04T09:44:00.115Z, 4
2023-01-04T09:46:00.092Z, 4
2023-01-04T09:48:00.112Z, 4.4
2023-01-04T09:50:00.084Z, 4.4
2023-01-04T09:52:00.128Z, 4.4
2023-01-04T09:54:00.107Z, 4
2023-01-04T09:56:00.145Z, 4
2023-01-04T09:58:00.096Z, 4.5
2023-01-04T10:00:00.088Z, 4.5
2023-01-04T10:02:00.450Z, 4.5
2023-01-04T10:04:00.106Z, 4.1
2023-01-04T10:06:00.093Z, 4.1
2023-01-04T10:08:00.107Z, 4.2
2023-01-04T10:10:00.125Z, 4.2
2023-01-04T10:12:00.110Z, 4.2
2023-01-04T10:14:00.082Z, 4.1
2023-01-04T10:16:00.184Z, 4.1
2023-01-04T10:22:00.258Z, 4.2
2023-01-04T10:24:00.099Z, 4.3
2023-01-04T10:26:00.088Z, 4.3
2023-01-04T10:28:00.111Z, 4.7
2023-01-04T10:30:00.112Z, 4.7
2023-01-04T10:32:00.142Z, 4.7
2023-01-04T10:34:00.086Z, 4.4
2023-01-04T10:36:00.110Z, 4.4
2023-01-04T10:38:00.112Z, 3.6
2023-01-04T10:40:00.110Z, 3.6
2023-01-04T10:42:00.096Z, 3.6
2023-01-04T10:44:11.482Z, 4.6
2023-01-04T10:46:00.096Z, 4.6
2023-01-04T10:48:00.088Z, 4.7
2023-01-04T10:50:00.126Z, 4.7
2023-01-04T10:52:00.116Z, 4.7
2023-01-04T10:54:00.122Z, 4.9
2023-01-04T10:56:25.144Z, 4.9
2023-01-04T10:58:00.335Z, 4.7
2023-01-04T11:00:00.109Z, 4.7
2023-01-04T11:02:00.330Z, 4.7
2023-01-04T11:04:00.110Z, 4.6
2023-01-04T11:06:00.083Z, 4.6
2023-01-04T11:08:00.101Z, 4.9
2023-01-04T11:10:00.098Z, 4.9
2023-01-04T11:12:00.071Z, 4.9
2023-01-04T11:14:00.139Z, 4.6
2023-01-04T11:16:00.191Z, 4.6
2023-01-04T11:18:00.101Z, 4.7
2023-01-04T11:20:00.137Z, 4.7
2023-01-04T11:22:00.091Z, 4.7
2023-01-04T11:24:22.030Z, 4.4
2023-01-04T11:26:00.095Z, 4.4
2023-01-04T11:28:00.100Z, 5.2
2023-01-04T11:30:00.128Z, 5.2
2023-01-04T11:32:00.244Z, 5.2
2023-01-04T11:34:00.184Z, 3.8
2023-01-04T11:36:00.095Z, 3.8
2023-01-04T11:38:00.051Z, 4.6
2023-01-04T11:40:00.120Z, 4.6
2023-01-04T11:42:03.228Z, 4.6
2023-01-04T11:44:00.099Z, 4.8
2023-01-04T11:46:00.345Z, 4.8
2023-01-04T11:48:00.119Z, 5
2023-01-04T11:50:00.128Z, 5
2023-01-04T11:52:00.482Z, 5
2023-01-04T11:54:00.145Z, 4
2023-01-04T11:56:00.121Z, 4
2023-01-04T11:58:00.127Z, 4.2
2023-01-04T12:00:00.106Z, 4.2
2023-01-04T12:02:00.347Z, 4.2
2023-01-04T12:04:00.118Z, 4.2
2023-01-04T12:06:00.110Z, 4.2
2023-01-04T12:08:00.110Z, 3.9
2023-01-04T12:10:00.128Z, 3.9
2023-01-04T12:12:00.094Z, 3.9
2023-01-04T12:14:00.144Z, 4.5
2023-01-04T12:16:00.166Z, 4.5
2023-01-04T12:18:00.127Z, 5.7
2023-01-04T12:20:00.126Z, 5.7
2023-01-04T12:22:00.125Z, 5.7
2023-01-04T12:24:00.129Z, 5.3
2023-01-04T12:26:00.115Z, 5.3
2023-01-04T12:28:00.115Z, 3.9
2023-01-04T12:30:00.112Z, 3.9
2023-01-04T12:32:00.104Z, 3.9
2023-01-04T12:34:00.093Z, 4.4
2023-01-04T12:36:00.119Z, 4.4
2023-01-04T12:38:00.133Z, 5.5
2023-01-04T12:40:00.109Z, 5.5
2023-01-04T12:42:00.092Z, 5.5
2023-01-04T12:44:00.107Z, 5.2
2023-01-04T12:46:00.231Z, 5.2
2023-01-04T12:48:00.119Z, 5
2023-01-04T12:50:00.179Z, 5
2023-01-04T12:52:20.957Z, 5
2023-01-04T12:54:00.094Z, 5
2023-01-04T12:56:00.104Z, 5
2023-01-04T12:58:00.091Z, 4.9
2023-01-04T13:00:00.183Z, 4.9
2023-01-04T13:02:00.193Z, 4.9
2023-01-04T13:04:05.085Z, 4.2
2023-01-04T13:06:00.150Z, 4.2
2023-01-04T13:08:00.110Z, 5.2
2023-01-04T13:10:00.110Z, 5.2
2023-01-04T13:12:00.106Z, 5.2
2023-01-04T13:14:00.131Z, 5
2023-01-04T13:16:00.077Z, 5
2023-01-04T13:18:00.119Z, 3.7
2023-01-04T13:20:00.130Z, 3.7
2023-01-04T13:22:00.103Z, 3.7
2023-01-04T13:24:00.096Z, 4.6
2023-01-04T13:26:00.078Z, 4.6
2023-01-04T13:28:00.187Z, 5
2023-01-04T13:30:00.240Z, 5
2023-01-04T13:32:00.345Z, 5
2023-01-04T13:34:00.264Z, 4.8
2023-01-04T13:36:00.074Z, 4.8
2023-01-04T13:38:00.103Z, 5
2023-01-04T13:40:00.097Z, 5
2023-01-04T13:42:00.100Z, 5
2023-01-04T13:44:00.125Z, 4.8
2023-01-04T13:46:06.013Z, 4.8
2023-01-04T13:48:00.117Z, 4.3
2023-01-04T13:50:00.129Z, 4.3
2023-01-04T13:52:18.312Z, 4.3
2023-01-04T13:54:00.108Z, 5
2023-01-04T13:56:00.103Z, 5
2023-01-04T13:58:00.108Z, 4.9
2023-01-04T14:00:00.113Z, 4.9
2023-01-04T14:02:00.134Z, 4.9
2023-01-04T14:04:00.121Z, 4.3
2023-01-04T14:06:04.381Z, 4.3
2023-01-04T14:08:00.095Z, 4.4
2023-01-04T14:10:00.133Z, 4.4
2023-01-04T14:12:06.929Z, 4.4
2023-01-04T14:14:00.111Z, 5.7
2023-01-04T14:16:00.160Z, 5.7
2023-01-04T14:18:00.114Z, 4.8
2023-01-04T14:20:00.150Z, 4.8
2023-01-04T14:22:00.094Z, 4.8
2023-01-04T14:24:00.106Z, 5.2
2023-01-04T14:26:00.225Z, 5.2
2023-01-04T14:28:00.080Z, 5.5
2023-01-04T14:30:00.153Z, 5.5
2023-01-04T14:32:00.130Z, 5.5
2023-01-04T14:34:00.104Z, 5.5
2023-01-04T14:36:00.115Z, 5.5
2023-01-04T14:38:00.144Z, 5.5
2023-01-04T14:40:00.154Z, 5.5
2023-01-04T14:42:00.204Z, 5.5
2023-01-04T14:44:00.107Z, 5.5
2023-01-04T14:46:00.114Z, 5.5
2023-01-04T14:48:00.109Z, 5.5
2023-01-04T14:50:00.100Z, 5.5
2023-01-04T14:52:00.127Z, 5.5
2023-01-04T14:54:00.125Z, 5.5
2023-01-04T14:56:00.118Z, 5.5
2023-01-04T14:58:00.164Z, 5.5
2023-01-04T15:00:00.098Z, 5.5
2023-01-04T15:02:00.270Z, 5.5
2023-01-04T15:04:00.305Z, 5.5
2023-01-04T15:06:00.143Z, 5.5
2023-01-04T15:08:00.101Z, 5.5
2023-01-04T15:10:00.106Z, 5.5
2023-01-04T15:12:00.105Z, 5.5
2023-01-04T15:14:00.138Z, 5.5
2023-01-04T15:16:00.168Z, 5.5
2023-01-04T15:18:00.130Z, 5.5
2023-01-04T15:20:00.143Z, 5.5
2023-01-04T15:22:00.088Z, 5.5
2023-01-04T15:24:00.116Z, 5.5
2023-01-04T15:26:00.104Z, 5.5
2023-01-04T15:28:00.125Z, 5.5
2023-01-04T15:30:00.096Z, 5.5
2023-01-04T15:32:00.248Z, 5.5
2023-01-04T15:34:00.115Z, 5.5
2023-01-04T15:36:00.109Z, 5.5
2023-01-04T15:38:00.072Z, 5.5
2023-01-04T15:40:02.681Z, 4.7
2023-01-04T15:42:00.129Z, 4.7
2023-01-04T15:44:00.125Z, 5.1
2023-01-04T15:46:00.219Z, 5.1
2023-01-04T15:48:00.054Z, 5.1
2023-01-04T15:50:00.091Z, 5.3
2023-01-04T15:52:00.054Z, 5.3
2023-01-04T15:54:00.083Z, 5.1
2023-01-04T15:56:00.090Z, 5.1
2023-01-04T15:58:00.102Z, 5.1
2023-01-04T16:00:00.120Z, 5.3
2023-01-04T16:02:00.205Z, 5.3
2023-01-04T16:04:00.117Z, 5.2
2023-01-04T16:06:00.147Z, 5.2
2023-01-04T16:08:00.164Z, 5.2
2023-01-04T16:10:00.208Z, 4.5
2023-01-04T16:12:00.086Z, 4.5
2023-01-04T16:14:00.133Z, 4.3
2023-01-04T16:16:00.237Z, 4.3
2023-01-04T16:18:00.100Z, 4.3
2023-01-04T16:20:00.125Z, 4.5
2023-01-04T16:22:00.145Z, 4.5
2023-01-04T16:24:07.007Z, 4.1
2023-01-04T16:26:00.074Z, 4.1
2023-01-04T16:28:00.081Z, 4.1
2023-01-04T16:30:00.122Z, 4.8
2023-01-04T16:32:00.184Z, 4.8
2023-01-04T16:34:00.134Z, 4.4
2023-01-04T16:36:00.098Z, 4.4
2023-01-04T16:38:00.129Z, 4.4
2023-01-04T16:40:08.607Z, 5.7
2023-01-04T16:42:03.136Z, 5.7
2023-01-04T16:44:00.104Z, 5.7
2023-01-04T16:46:00.090Z, 5.5
2023-01-04T16:48:00.129Z, 5.5
2023-01-04T16:50:00.117Z, 5.3
2023-01-04T16:52:00.072Z, 5.3
2023-01-04T16:54:00.125Z, 5.8
2023-01-04T16:56:00.107Z, 5.8
2023-01-04T16:58:00.136Z, 5.8
2023-01-04T17:00:00.110Z, 4.6
2023-01-04T17:02:00.236Z, 4.6
2023-01-04T17:04:00.212Z, 5.4
2023-01-04T17:06:00.120Z, 5.4
2023-01-04T17:08:00.114Z, 5.4
2023-01-04T17:10:00.153Z, 5.4
2023-01-04T17:14:00.139Z, 5.3
2023-01-04T17:16:00.202Z, 5.3
2023-01-04T17:18:00.106Z, 5.3
2023-01-04T17:20:00.152Z, 5.6
2023-01-04T17:22:00.114Z, 5.6
2023-01-04T17:24:00.097Z, 5.6
2023-01-04T17:26:00.081Z, 5.8
2023-01-04T17:28:00.153Z, 5.8
2023-01-04T17:30:00.091Z, 5.8
2023-01-04T17:32:00.184Z, 5.8
2023-01-04T17:34:00.107Z, 4.7
2023-01-04T17:36:00.116Z, 4.7
2023-01-04T17:38:00.125Z, 4.7
2023-01-04T17:40:00.159Z, 5.4
2023-01-04T17:42:00.106Z, 5.4
2023-01-04T17:44:00.339Z, 5.3
2023-01-04T17:46:00.165Z, 5.3
2023-01-04T17:48:00.136Z, 3.5
2023-01-04T17:50:00.140Z, 3.9
2023-01-04T17:52:00.123Z, 3.9
2023-01-04T17:54:00.119Z, 3.9
2023-01-04T21:16:00.273Z, 3.9
2023-01-04T21:18:00.139Z, 2.1
2023-01-04T21:20:00.181Z, 2.1
2023-01-04T21:22:00.104Z, 2.1
2023-01-04T21:24:00.165Z, 5.3
2023-01-04T21:26:00.118Z, 5.3
2023-01-04T21:28:00.115Z, 4.8
2023-01-04T21:30:00.129Z, 4.8
2023-01-04T21:32:00.103Z, 4.8
2023-01-04T21:34:00.112Z, 5
2023-01-04T21:36:00.122Z, 5
2023-01-04T21:38:00.112Z, 4.2
2023-01-04T21:40:00.235Z, 4.2
2023-01-04T21:42:00.085Z, 4.2
2023-01-04T21:44:00.109Z, 5.3
2023-01-04T21:46:00.146Z, 5.3
2023-01-04T21:48:00.107Z, 5.1
2023-01-04T21:50:00.113Z, 5.1
2023-01-04T21:52:00.116Z, 5.1
2023-01-04T21:54:00.102Z, 4.1
2023-01-04T21:56:00.107Z, 4.1
2023-01-04T21:58:00.106Z, 4.8
2023-01-04T22:00:00.117Z, 4.8
2023-01-04T22:02:00.257Z, 4.8
2023-01-04T22:04:00.175Z, 4.8
2023-01-04T22:06:00.129Z, 4.8
2023-01-04T22:08:00.101Z, 4.4
2023-01-04T22:10:00.133Z, 4.4
2023-01-04T22:12:00.080Z, 4.4
2023-01-04T22:14:00.113Z, 4.2
2023-01-04T22:16:00.224Z, 4.2
2023-01-04T22:18:00.136Z, 4.6
2023-01-04T22:20:00.106Z, 4.6
2023-01-04T22:22:00.089Z, 4.6
2023-01-04T22:24:00.126Z, 4.4
2023-01-04T22:26:00.120Z, 4.4
2023-01-04T22:28:00.111Z, 5.6
2023-01-04T22:30:00.104Z, 5.6
2023-01-04T22:32:00.108Z, 5.6
2023-01-04T22:34:00.102Z, 6.4
2023-01-04T22:36:00.077Z, 6.4
2023-01-04T22:38:00.084Z, 4.8
2023-01-04T22:40:00.113Z, 4.8
2023-01-04T22:42:00.119Z, 4.8
2023-01-04T22:44:00.089Z, 3.2
2023-01-04T22:46:00.091Z, 3.2
2023-01-04T22:48:00.091Z, 2.8
2023-01-04T22:50:00.120Z, 2.8
2023-01-04T22:52:00.119Z, 2.8
2023-01-04T22:54:00.108Z, 3.2
2023-01-04T22:56:18.307Z, 3.2
2023-01-04T22:58:00.119Z, 3.9
2023-01-04T23:00:00.180Z, 3.9
2023-01-04T23:02:00.187Z, 3.9
2023-01-04T23:04:00.247Z, 5.2
2023-01-04T23:06:00.097Z, 5.2
2023-01-04T23:08:00.095Z, 3.6
2023-01-04T23:10:00.128Z, 3.6
2023-01-04T23:12:00.091Z, 3.6
2023-01-04T23:14:00.126Z, 3.3
2023-01-04T23:16:00.179Z, 3.3
2023-01-04T23:18:00.105Z, 3.8
2023-01-04T23:20:00.139Z, 3.8
2023-01-04T23:22:00.115Z, 3.8
2023-01-04T23:24:00.138Z, 3.8
2023-01-04T23:26:00.242Z, 3.8
2023-01-04T23:28:00.309Z, 3.4
2023-01-04T23:30:00.255Z, 3.4
2023-01-04T23:32:00.145Z, 3.4
2023-01-04T23:34:00.131Z, 3.6
2023-01-04T23:36:00.097Z, 3.6
2023-01-04T23:38:00.085Z, 3.3
2023-01-04T23:40:00.122Z, 3.3
2023-01-04T23:42:00.118Z, 3.3
2023-01-04T23:44:00.118Z, 2.8
2023-01-04T23:46:00.111Z, 2.8
2023-01-04T23:48:00.124Z, 3.6
2023-01-04T23:50:00.117Z, 3.6
2023-01-04T23:52:00.156Z, 3.6
2023-01-04T23:54:00.104Z, 2.9
2023-01-04T23:56:00.162Z, 2.9
2023-01-04T23:58:00.070Z, 3.3
